Vliegveldwaarnemingen Nederland - (AUTO) METAR

Luchtvaartmeteorologische informatie voor operationeel gebruik en vluchtvoorbereiding is beschikbaar op www.luchtvaartmeteo.nl.

ZCZC
SA211125 EHFS     VLISSINGEN AWS   NLD   8 m.
METAR EHFS 211125Z AUTO 21022KT 9999 FEW030/// BKN035/// BKN040///
16/11 Q1008=

ZCZC
SA211155 EHKD     DE KOOY/DE KOOY   NLD   1 m.
METAR EHKD 211155Z AUTO 21021KT 170V230 9999 FEW021 16/13 Q1006
BLU 19020G30KT=

ZCZC
SA211155 EHFD     F3-FB-1   NLD   50 m.
METAR EHFD 211155Z AUTO ///23KT 9999 FEW011/// SCT015/// BKN019///
15/13 Q1002=

ZCZC
SA211155 EHAM     AMSTERDAM/SCHIPHOL   NLD   -3 m.
METAR EHAM 211155Z 21019KT 9999 FEW028 17/12 Q1007 TEMPO 7000 -SHRA
SCT020CB=

ZCZC
SA211155 EHVL     VLIELAND   NLD   10 m.
METAR EHVL 211155Z AUTO 20021KT 9999 FEW013 BKN016 BKN020 15/13 Q1005
 WHT=

ZCZC
SA211155 EHJR     K13-A   NLD   37 m.
METAR EHJR 211155Z NIL=

ZCZC
SA211155 EHLW     LEEUWARDEN/LEEUWARDEN   NLD   1 m.
METAR EHLW 211155Z AUTO 22012KT 190V250 9999 BKN031 BKN036 BKN040
14/12 Q1006 REDZ BLU=

ZCZC
SA211155 EHDL     ARNHEM/DEELEN   NLD   48 m.
METAR EHDL 211155Z AUTO 22016KT 170V260 9999 NCD 17/13 Q1008
BLACKBLU=

ZCZC
SA211155 EHGG     GRONINGEN/EELDE   NLD   5 m.
METAR EHGG 211155Z AUTO 17008KT 130V210 9999 FEW008 BKN011 BKN013
14/13 Q1008 BECMG BKN018=

ZCZC
SA211155 EHSC     LICHTEILAND GOEREE   NLD   22 m.
METAR EHSC 211155Z NIL=

ZCZC
SA211155 EHSA     EURO PLATFORM   NLD   19 m.
METAR EHSA 211155Z NIL=

ZCZC
SA211155 EHWO     WOENSDRECHT/WOENSDRECHT   NLD   19 m.
METAR EHWO 211155Z AUTO 22015G25KT 190V250 9999 FEW035 17/10 Q1008 BLU=

ZCZC
SA211155 EHRD     ROTTERDAM/THE HAGUE AIRPORT   NLD   -5 m.
METAR EHRD 211155Z AUTO 21018KT 9999 SCT028 BKN032 BKN037 17/12 Q1007
TEMPO 7000 -SHRA SCT020CB=

ZCZC
SA211155 EHGR     GILZE-RIJEN/GILZE-RIJEN   NLD   14 m.
METAR EHGR 211155Z AUTO 22010KT 190V280 9999 SCT130 17/10 Q1009 BLU=

ZCZC
SA211155 EHEH     EINDHOVEN/EINDHOVEN   NLD   22 m.
METAR EHEH 211155Z AUTO 23016KT 190V270 9999 FEW040 SCT044 BKN052
17/11 Q1009
BLU 22015G25KT 9999 FEW015 SCT025=

ZCZC
SA211155 EHVK     VOLKEL/VOLKEL   NLD   21 m.
METAR EHVK 211155Z AUTO 22015KT 200V260 9999 FEW025 SCT032 BKN120
17/12 Q1009 BLU=

ZCZC
SA211155 EHBK     MAASTRICHT/MAASTRICHT-AACHEN   NLD   114 m.
METAR EHBK 211155Z AUTO 22017KT 190V250 9999 FEW026 SCT029 BKN035
16/12 Q1011 NOSIG=

ZCZC
SA211155 EHFZ     F16-A   NLD   43 m.
METAR EHFZ 211155Z AUTO 20028KT 9999 FEW019 15/11 Q1002=

ZCZC
SA211155 EHKV     K14-FA-1C   NLD   41 m.
METAR EHKV 211155Z AUTO 20034KT 9999 FEW021 16/10 Q1003=

ZCZC
SA211155 EHMG     L9-FF-1   NLD   44 m.
METAR EHMG 211155Z AUTO 21024KT 9999 NSC 15/12 Q1004=

ZCZC
SA211155 EHMA     AWG-1   NLD   40 m.
METAR EHMA 211155Z AUTO 20024KT 9999 FEW012 BKN015 BKN020 14/12 Q1006
REDZ=

ZCZC
SA211155 EHDV     D15-FA-1   NLD   42 m.
METAR EHDV 211155Z AUTO 18027KT 9999 NSC 14/10 Q1000=

ZCZC
SA211155 EHAK     A12-CPP   NLD   48 m.
METAR EHAK 211155Z AUTO 17019KT 9999 SCT000/// SCT022/// BKN040///
14/12 Q1000=

ZCZC
SA211155 EHQE     HOORN-A   NLD   50 m.
METAR EHQE 211155Z AUTO ///31KT 9999 FEW019 SCT036 16/11 Q1004=

ZCZC
SA211155 EHJA     J6-A   NLD   45 m.
METAR EHJA 211155Z AUTO 19027KT 9999 NCD 15/11 Q1001=

ZCZC
SA211155 EHPG     P11-B   NLD   41 m.
METAR EHPG 211155Z AUTO 20037KT 5000 -RA FEW022 SCT046 13/// Q1003=

ZCZC
SA211155 EHHW     BUITENGAATS/BG-OHVS2      42 m.
METAR EHHW 211155Z AUTO 21023KT 9999 ///////// 14/12 Q1006=

21/10/2017 14.00 uur LT